sensor_id;sensor_type;location;lat;lon;timestamp;temperature;humidity
22161;DHT22;49035;48.812;11.762;2023-02-26T00:00:25;-1.00;99.90
22161;DHT22;49035;48.812;11.762;2023-02-26T00:02:51;-0.90;99.90
22161;DHT22;49035;48.812;11.762;2023-02-26T00:05:17;-0.90;99.90
22161;DHT22;49035;48.812;11.762;2023-02-26T00:07:42;-0.90;99.90
22161;DHT22;49035;48.812;11.762;2023-02-26T00:10:11;-1.00;99.90
22161;DHT22;49035;48.812;11.762;2023-02-26T00:12:37;-1.00;99.90
22161;DHT22;49035;48.812;11.762;2023-02-26T00:15:04;-1.00;99.90
22161;DHT22;49035;48.812;11.762;2023-02-26T00:17:45;-1.10;99.90
22161;DHT22;49035;48.812;11.762;2023-02-26T00:20:14;-1.10;99.90
22161;DHT22;49035;48.812;11.762;2023-02-26T00:22:41;-1.10;99.90
22161;DHT22;49035;48.812;11.762;2023-02-26T00:25:08;-1.00;99.90
22161;DHT22;49035;48.812;11.762;2023-02-26T00:27:34;-1.00;99.90
22161;DHT22;49035;48.812;11.762;2023-02-26T00:30:00;-1.10;99.90
22161;DHT22;49035;48.812;11.762;2023-02-26T00:32:26;-1.00;99.90
22161;DHT22;49035;48.812;11.762;2023-02-26T00:34:52;-1.10;99.90
22161;DHT22;49035;48.812;11.762;2023-02-26T00:42:36;-1.30;99.90
22161;DHT22;49035;48.812;11.762;2023-02-26T00:45:03;-1.10;99.90
22161;DHT22;49035;48.812;11.762;2023-02-26T00:47:39;-1.20;99.90
22161;DHT22;49035;48.812;11.762;2023-02-26T00:50:13;-1.20;99.90
22161;DHT22;49035;48.812;11.762;2023-02-26T00:55:28;-1.30;99.90
22161;DHT22;49035;48.812;11.762;2023-02-26T00:57:53;-1.40;99.90
22161;DHT22;49035;48.812;11.762;2023-02-26T01:00:19;-1.50;99.90
22161;DHT22;49035;48.812;11.762;2023-02-26T01:02:45;-1.50;99.90
22161;DHT22;49035;48.812;11.762;2023-02-26T01:05:12;-1.50;99.90
22161;DHT22;49035;48.812;11.762;2023-02-26T01:10:07;-1.70;99.90
22161;DHT22;49035;48.812;11.762;2023-02-26T01:12:37;-1.70;99.90
22161;DHT22;49035;48.812;11.762;2023-02-26T01:15:04;-1.80;99.90
22161;DHT22;49035;48.812;11.762;2023-02-26T01:17:40;-1.90;99.90
22161;DHT22;49035;48.812;11.762;2023-02-26T01:20:15;-1.90;99.90
22161;DHT22;49035;48.812;11.762;2023-02-26T01:25:21;-2.20;99.90
22161;DHT22;49035;48.812;11.762;2023-02-26T01:27:47;-2.40;99.90
22161;DHT22;49035;48.812;11.762;2023-02-26T01:30:13;-2.30;99.90
22161;DHT22;49035;48.812;11.762;2023-02-26T01:32:58;-2.50;99.90
22161;DHT22;49035;48.812;11.762;2023-02-26T01:40:57;-2.80;99.90
22161;DHT22;49035;48.812;11.762;2023-02-26T01:46:20;-2.90;99.90
22161;DHT22;49035;48.812;11.762;2023-02-26T01:48:51;-3.00;99.90
22161;DHT22;49035;48.812;11.762;2023-02-26T01:51:39;-3.00;99.90
22161;DHT22;49035;48.812;11.762;2023-02-26T01:54:04;-2.90;99.90
22161;DHT22;49035;48.812;11.762;2023-02-26T01:56:30;-2.70;99.90
22161;DHT22;49035;48.812;11.762;2023-02-26T01:58:56;-2.60;99.90
22161;DHT22;49035;48.812;11.762;2023-02-26T02:01:21;-2.50;99.90
22161;DHT22;49035;48.812;11.762;2023-02-26T02:03:47;-2.50;99.90
22161;DHT22;49035;48.812;11.762;2023-02-26T02:06:21;-2.70;99.90
22161;DHT22;49035;48.812;11.762;2023-02-26T02:08:48;-2.70;99.90
22161;DHT22;49035;48.812;11.762;2023-02-26T02:11:14;-2.80;99.90
22161;DHT22;49035;48.812;11.762;2023-02-26T02:13:49;-2.70;99.90
22161;DHT22;49035;48.812;11.762;2023-02-26T02:16:45;-2.70;99.90
22161;DHT22;49035;48.812;11.762;2023-02-26T02:19:24;-2.80;99.90
22161;DHT22;49035;48.812;11.762;2023-02-26T02:25:07;-2.80;99.90
22161;DHT22;49035;48.812;11.762;2023-02-26T02:33:14;-2.60;99.90
22161;DHT22;49035;48.812;11.762;2023-02-26T02:36:07;-2.80;99.90
22161;DHT22;49035;48.812;11.762;2023-02-26T02:38:43;-3.00;99.90
22161;DHT22;49035;48.812;11.762;2023-02-26T02:41:15;-3.20;99.90
22161;DHT22;49035;48.812;11.762;2023-02-26T02:43:42;-3.30;99.90
22161;DHT22;49035;48.812;11.762;2023-02-26T02:46:14;-3.20;99.90
22161;DHT22;49035;48.812;11.762;2023-02-26T02:48:44;-3.50;99.90
22161;DHT22;49035;48.812;11.762;2023-02-26T02:51:16;-3.50;99.90
22161;DHT22;49035;48.812;11.762;2023-02-26T02:53:52;-3.20;99.90
22161;DHT22;49035;48.812;11.762;2023-02-26T02:56:36;-3.10;99.90
22161;DHT22;49035;48.812;11.762;2023-02-26T02:59:24;-3.10;99.90
22161;DHT22;49035;48.812;11.762;2023-02-26T03:02:10;-3.10;99.90
22161;DHT22;49035;48.812;11.762;2023-02-26T03:04:39;-3.10;99.90
22161;DHT22;49035;48.812;11.762;2023-02-26T03:07:05;-3.10;99.90
22161;DHT22;49035;48.812;11.762;2023-02-26T03:09:32;-3.30;99.90
22161;DHT22;49035;48.812;11.762;2023-02-26T03:11:58;-3.20;99.90
22161;DHT22;49035;48.812;11.762;2023-02-26T03:14:24;-3.10;99.90
22161;DHT22;49035;48.812;11.762;2023-02-26T03:17:21;-3.10;99.90
22161;DHT22;49035;48.812;11.762;2023-02-26T03:23:09;-3.30;99.90
22161;DHT22;49035;48.812;11.762;2023-02-26T03:29:04;-3.40;99.90
22161;DHT22;49035;48.812;11.762;2023-02-26T03:31:24;-3.50;99.90
22161;DHT22;49035;48.812;11.762;2023-02-26T03:35:07;-3.60;99.90
22161;DHT22;49035;48.812;11.762;2023-02-26T03:37:02;-3.80;99.90
22161;DHT22;49035;48.812;11.762;2023-02-26T03:39:41;-3.80;99.90
22161;DHT22;49035;48.812;11.762;2023-02-26T03:42:19;-3.60;99.90
22161;DHT22;49035;48.812;11.762;2023-02-26T03:44:56;-3.60;99.90
22161;DHT22;49035;48.812;11.762;2023-02-26T03:47:24;-3.70;99.90
22161;DHT22;49035;48.812;11.762;2023-02-26T03:50:05;-3.80;99.90
22161;DHT22;49035;48.812;11.762;2023-02-26T03:52:35;-3.60;99.90
22161;DHT22;49035;48.812;11.762;2023-02-26T03:55:43;-3.50;99.90
22161;DHT22;49035;48.812;11.762;2023-02-26T03:58:09;-3.40;99.90
22161;DHT22;49035;48.812;11.762;2023-02-26T04:00:37;-3.40;99.90
22161;DHT22;49035;48.812;11.762;2023-02-26T04:03:08;-3.40;99.90
22161;DHT22;49035;48.812;11.762;2023-02-26T04:05:38;-3.40;99.90
22161;DHT22;49035;48.812;11.762;2023-02-26T04:08:05;-3.50;99.90
22161;DHT22;49035;48.812;11.762;2023-02-26T04:10:40;-3.50;99.90
22161;DHT22;49035;48.812;11.762;2023-02-26T04:13:07;-3.70;99.90
22161;DHT22;49035;48.812;11.762;2023-02-26T04:15:33;-3.90;99.90
22161;DHT22;49035;48.812;11.762;2023-02-26T04:17:58;-4.20;99.90
22161;DHT22;49035;48.812;11.762;2023-02-26T04:20:24;-4.30;99.90
22161;DHT22;49035;48.812;11.762;2023-02-26T04:22:49;-4.50;99.90
22161;DHT22;49035;48.812;11.762;2023-02-26T04:25:15;-4.60;99.90
22161;DHT22;49035;48.812;11.762;2023-02-26T04:27:40;-4.60;99.90
22161;DHT22;49035;48.812;11.762;2023-02-26T04:30:07;-4.80;99.90
22161;DHT22;49035;48.812;11.762;2023-02-26T04:32:32;-5.00;99.90
22161;DHT22;49035;48.812;11.762;2023-02-26T04:34:58;-5.30;99.90
22161;DHT22;49035;48.812;11.762;2023-02-26T04:37:24;-5.40;99.90
22161;DHT22;49035;48.812;11.762;2023-02-26T04:39:49;-5.50;99.90
22161;DHT22;49035;48.812;11.762;2023-02-26T04:42:15;-5.60;99.90
22161;DHT22;49035;48.812;11.762;2023-02-26T04:44:40;-5.40;99.90
22161;DHT22;49035;48.812;11.762;2023-02-26T04:47:06;-5.30;99.90
22161;DHT22;49035;48.812;11.762;2023-02-26T04:49:31;-5.30;99.90
22161;DHT22;49035;48.812;11.762;2023-02-26T04:51:57;-5.20;99.90
22161;DHT22;49035;48.812;11.762;2023-02-26T04:54:23;-5.10;99.90
22161;DHT22;49035;48.812;11.762;2023-02-26T04:56:49;-5.00;99.90
22161;DHT22;49035;48.812;11.762;2023-02-26T04:59:14;-4.90;99.90
22161;DHT22;49035;48.812;11.762;2023-02-26T05:01:40;-4.90;99.90
22161;DHT22;49035;48.812;11.762;2023-02-26T05:04:05;-5.00;99.90
22161;DHT22;49035;48.812;11.762;2023-02-26T05:06:31;-5.00;99.90
22161;DHT22;49035;48.812;11.762;2023-02-26T05:08:57;-5.20;99.90
22161;DHT22;49035;48.812;11.762;2023-02-26T05:11:22;-5.30;99.90
22161;DHT22;49035;48.812;11.762;2023-02-26T05:13:48;-5.40;99.90
22161;DHT22;49035;48.812;11.762;2023-02-26T05:16:13;-5.30;99.90
22161;DHT22;49035;48.812;11.762;2023-02-26T05:18:39;-5.30;99.90
22161;DHT22;49035;48.812;11.762;2023-02-26T05:21:05;-5.20;99.90
22161;DHT22;49035;48.812;11.762;2023-02-26T05:23:30;-5.00;99.90
22161;DHT22;49035;48.812;11.762;2023-02-26T05:25:57;-5.00;99.90
22161;DHT22;49035;48.812;11.762;2023-02-26T05:28:24;-5.00;99.90
22161;DHT22;49035;48.812;11.762;2023-02-26T05:30:50;-5.00;99.90
22161;DHT22;49035;48.812;11.762;2023-02-26T05:33:16;-5.00;99.90
22161;DHT22;49035;48.812;11.762;2023-02-26T05:35:41;-5.00;99.90
22161;DHT22;49035;48.812;11.762;2023-02-26T05:38:07;-5.00;99.90
22161;DHT22;49035;48.812;11.762;2023-02-26T05:40:33;-4.90;99.90
22161;DHT22;49035;48.812;11.762;2023-02-26T05:43:01;-4.90;99.90
22161;DHT22;49035;48.812;11.762;2023-02-26T05:45:27;-4.90;99.90
22161;DHT22;49035;48.812;11.762;2023-02-26T05:47:52;-4.70;99.90
22161;DHT22;49035;48.812;11.762;2023-02-26T05:50:18;-4.60;99.90
22161;DHT22;49035;48.812;11.762;2023-02-26T05:52:44;-4.30;99.90
22161;DHT22;49035;48.812;11.762;2023-02-26T05:55:09;-4.20;99.90
22161;DHT22;49035;48.812;11.762;2023-02-26T05:57:35;-3.90;99.90
22161;DHT22;49035;48.812;11.762;2023-02-26T06:00:01;-3.80;99.90
22161;DHT22;49035;48.812;11.762;2023-02-26T06:02:26;-3.80;99.90
22161;DHT22;49035;48.812;11.762;2023-02-26T06:04:52;-3.70;99.90
22161;DHT22;49035;48.812;11.762;2023-02-26T06:07:18;-3.70;99.90
22161;DHT22;49035;48.812;11.762;2023-02-26T06:09:43;-3.60;99.90
22161;DHT22;49035;48.812;11.762;2023-02-26T06:12:09;-3.50;99.90
22161;DHT22;49035;48.812;11.762;2023-02-26T06:14:35;-3.40;99.90
22161;DHT22;49035;48.812;11.762;2023-02-26T06:17:02;-3.30;99.90
22161;DHT22;49035;48.812;11.762;2023-02-26T06:19:28;-3.20;99.90
22161;DHT22;49035;48.812;11.762;2023-02-26T06:21:53;-3.00;99.90
22161;DHT22;49035;48.812;11.762;2023-02-26T06:24:19;-2.90;99.90
22161;DHT22;49035;48.812;11.762;2023-02-26T06:26:44;-2.80;99.90
22161;DHT22;49035;48.812;11.762;2023-02-26T06:29:10;-2.70;99.90
22161;DHT22;49035;48.812;11.762;2023-02-26T06:31:36;-2.60;99.90
22161;DHT22;49035;48.812;11.762;2023-02-26T06:34:02;-2.60;99.90
22161;DHT22;49035;48.812;11.762;2023-02-26T06:36:27;-2.50;99.90
22161;DHT22;49035;48.812;11.762;2023-02-26T06:38:53;-2.50;99.90
22161;DHT22;49035;48.812;11.762;2023-02-26T06:41:19;-2.40;99.90
22161;DHT22;49035;48.812;11.762;2023-02-26T06:43:44;-2.40;99.90
22161;DHT22;49035;48.812;11.762;2023-02-26T06:46:10;-2.30;99.90
22161;DHT22;49035;48.812;11.762;2023-02-26T06:48:35;-2.40;99.90
22161;DHT22;49035;48.812;11.762;2023-02-26T06:51:01;-2.40;99.90
22161;DHT22;49035;48.812;11.762;2023-02-26T06:53:26;-2.40;99.90
22161;DHT22;49035;48.812;11.762;2023-02-26T06:55:52;-2.30;99.90
22161;DHT22;49035;48.812;11.762;2023-02-26T06:58:19;-2.20;99.90
22161;DHT22;49035;48.812;11.762;2023-02-26T07:00:45;-2.30;99.90
22161;DHT22;49035;48.812;11.762;2023-02-26T07:03:13;-2.30;99.90
22161;DHT22;49035;48.812;11.762;2023-02-26T07:05:39;-2.20;99.90
22161;DHT22;49035;48.812;11.762;2023-02-26T07:08:05;-2.10;99.90
22161;DHT22;49035;48.812;11.762;2023-02-26T07:10:32;-2.10;99.90
22161;DHT22;49035;48.812;11.762;2023-02-26T07:12:58;-2.10;99.90
22161;DHT22;49035;48.812;11.762;2023-02-26T07:15:24;-2.10;99.90
22161;DHT22;49035;48.812;11.762;2023-02-26T07:17:49;-2.00;99.90
22161;DHT22;49035;48.812;11.762;2023-02-26T07:20:15;-1.80;99.90
22161;DHT22;49035;48.812;11.762;2023-02-26T07:22:43;-1.80;99.90
22161;DHT22;49035;48.812;11.762;2023-02-26T07:25:09;-1.80;99.90
22161;DHT22;49035;48.812;11.762;2023-02-26T07:27:35;-1.80;99.90
22161;DHT22;49035;48.812;11.762;2023-02-26T07:30:01;-1.80;99.90
22161;DHT22;49035;48.812;11.762;2023-02-26T07:32:27;-1.60;99.90
22161;DHT22;49035;48.812;11.762;2023-02-26T07:34:53;-1.60;99.90
22161;DHT22;49035;48.812;11.762;2023-02-26T07:37:18;-1.40;99.90
22161;DHT22;49035;48.812;11.762;2023-02-26T07:39:44;-1.40;99.90
22161;DHT22;49035;48.812;11.762;2023-02-26T07:42:10;-1.40;99.90
22161;DHT22;49035;48.812;11.762;2023-02-26T07:44:36;-1.30;99.90
22161;DHT22;49035;48.812;11.762;2023-02-26T07:47:01;-1.20;99.90
22161;DHT22;49035;48.812;11.762;2023-02-26T07:49:27;-1.20;99.90
22161;DHT22;49035;48.812;11.762;2023-02-26T07:51:53;-1.10;99.90
22161;DHT22;49035;48.812;11.762;2023-02-26T07:54:19;-1.00;99.90
22161;DHT22;49035;48.812;11.762;2023-02-26T07:56:44;-0.80;99.90
22161;DHT22;49035;48.812;11.762;2023-02-26T07:59:10;-0.70;99.90
22161;DHT22;49035;48.812;11.762;2023-02-26T08:01:36;-0.70;99.90
22161;DHT22;49035;48.812;11.762;2023-02-26T08:04:02;-0.60;99.90
22161;DHT22;49035;48.812;11.762;2023-02-26T08:06:28;-0.70;99.90
22161;DHT22;49035;48.812;11.762;2023-02-26T08:08:54;-0.60;99.90
22161;DHT22;49035;48.812;11.762;2023-02-26T08:11:19;-0.50;99.90
22161;DHT22;49035;48.812;11.762;2023-02-26T08:13:45;-0.40;99.90
22161;DHT22;49035;48.812;11.762;2023-02-26T08:16:10;-0.50;99.90
22161;DHT22;49035;48.812;11.762;2023-02-26T08:18:36;-0.40;99.90
22161;DHT22;49035;48.812;11.762;2023-02-26T08:21:02;-0.30;99.90
22161;DHT22;49035;48.812;11.762;2023-02-26T08:23:28;-0.10;99.90
22161;DHT22;49035;48.812;11.762;2023-02-26T08:26:09;0.00;99.90
22161;DHT22;49035;48.812;11.762;2023-02-26T08:28:35;0.10;99.90
22161;DHT22;49035;48.812;11.762;2023-02-26T08:31:01;0.20;99.90
22161;DHT22;49035;48.812;11.762;2023-02-26T08:33:28;0.10;99.90
22161;DHT22;49035;48.812;11.762;2023-02-26T08:35:54;0.30;99.90
22161;DHT22;49035;48.812;11.762;2023-02-26T08:38:24;0.60;99.90
22161;DHT22;49035;48.812;11.762;2023-02-26T08:40:49;0.90;99.90
22161;DHT22;49035;48.812;11.762;2023-02-26T08:43:17;1.20;99.90
22161;DHT22;49035;48.812;11.762;2023-02-26T08:45:44;1.20;99.90
22161;DHT22;49035;48.812;11.762;2023-02-26T08:48:10;1.20;99.90
22161;DHT22;49035;48.812;11.762;2023-02-26T08:50:35;1.20;99.90
22161;DHT22;49035;48.812;11.762;2023-02-26T08:53:01;1.00;99.90
22161;DHT22;49035;48.812;11.762;2023-02-26T08:55:26;0.90;99.90
22161;DHT22;49035;48.812;11.762;2023-02-26T08:57:52;0.80;99.90
22161;DHT22;49035;48.812;11.762;2023-02-26T09:00:18;0.70;99.90
22161;DHT22;49035;48.812;11.762;2023-02-26T09:02:44;0.90;99.90
22161;DHT22;49035;48.812;11.762;2023-02-26T09:05:10;0.90;99.90
22161;DHT22;49035;48.812;11.762;2023-02-26T09:07:37;0.80;99.90
22161;DHT22;49035;48.812;11.762;2023-02-26T09:10:04;0.70;99.90
22161;DHT22;49035;48.812;11.762;2023-02-26T09:12:29;0.80;99.90
22161;DHT22;49035;48.812;11.762;2023-02-26T09:14:55;0.90;99.90
22161;DHT22;49035;48.812;11.762;2023-02-26T09:17:23;1.20;99.90
22161;DHT22;49035;48.812;11.762;2023-02-26T09:19:49;1.30;99.90
22161;DHT22;49035;48.812;11.762;2023-02-26T09:22:15;1.50;99.90
22161;DHT22;49035;48.812;11.762;2023-02-26T09:24:41;1.90;99.90
22161;DHT22;49035;48.812;11.762;2023-02-26T09:27:07;1.80;99.90
22161;DHT22;49035;48.812;11.762;2023-02-26T09:29:32;2.10;99.90
22161;DHT22;49035;48.812;11.762;2023-02-26T09:31:58;2.40;99.90
22161;DHT22;49035;48.812;11.762;2023-02-26T09:34:24;2.80;99.90
22161;DHT22;49035;48.812;11.762;2023-02-26T09:36:49;2.90;99.90
22161;DHT22;49035;48.812;11.762;2023-02-26T09:39:15;2.60;99.90
22161;DHT22;49035;48.812;11.762;2023-02-26T09:41:43;2.10;99.90
22161;DHT22;49035;48.812;11.762;2023-02-26T09:44:26;2.00;99.90
22161;DHT22;49035;48.812;11.762;2023-02-26T09:47:02;1.90;99.90
22161;DHT22;49035;48.812;11.762;2023-02-26T09:49:52;1.60;99.90
22161;DHT22;49035;48.812;11.762;2023-02-26T09:54:49;1.30;99.90
22161;DHT22;49035;48.812;11.762;2023-02-26T09:57:36;1.10;99.90
22161;DHT22;49035;48.812;11.762;2023-02-26T10:00:36;1.20;99.90
22161;DHT22;49035;48.812;11.762;2023-02-26T10:03:45;1.20;99.90
22161;DHT22;49035;48.812;11.762;2023-02-26T10:06:14;1.30;99.90
22161;DHT22;49035;48.812;11.762;2023-02-26T10:09:20;1.40;99.90
22161;DHT22;49035;48.812;11.762;2023-02-26T10:14:33;1.70;99.90
22161;DHT22;49035;48.812;11.762;2023-02-26T10:17:29;1.80;99.90
22161;DHT22;49035;48.812;11.762;2023-02-26T10:20:03;1.90;99.90
22161;DHT22;49035;48.812;11.762;2023-02-26T10:22:35;1.90;99.90
22161;DHT22;49035;48.812;11.762;2023-02-26T10:25:24;2.10;99.90
22161;DHT22;49035;48.812;11.762;2023-02-26T10:28:06;2.20;99.90
22161;DHT22;49035;48.812;11.762;2023-02-26T10:33:35;2.70;99.90
22161;DHT22;49035;48.812;11.762;2023-02-26T10:36:21;3.00;97.40
22161;DHT22;49035;48.812;11.762;2023-02-26T10:38:54;2.60;98.90
22161;DHT22;49035;48.812;11.762;2023-02-26T10:41:24;2.50;99.80
22161;DHT22;49035;48.812;11.762;2023-02-26T10:44:21;2.50;98.50
22161;DHT22;49035;48.812;11.762;2023-02-26T10:47:27;2.40;98.30
22161;DHT22;49035;48.812;11.762;2023-02-26T10:50:03;2.30;97.80
22161;DHT22;49035;48.812;11.762;2023-02-26T10:52:31;2.30;98.80
22161;DHT22;49035;48.812;11.762;2023-02-26T10:55:22;2.40;98.40
22161;DHT22;49035;48.812;11.762;2023-02-26T11:00:28;2.20;96.70
22161;DHT22;49035;48.812;11.762;2023-02-26T11:02:55;2.30;98.10
22161;DHT22;49035;48.812;11.762;2023-02-26T11:05:24;2.70;98.00
22161;DHT22;49035;48.812;11.762;2023-02-26T11:07:56;2.80;96.10
22161;DHT22;49035;48.812;11.762;2023-02-26T11:10:25;2.70;97.90
22161;DHT22;49035;48.812;11.762;2023-02-26T11:12:52;2.40;96.70
22161;DHT22;49035;48.812;11.762;2023-02-26T11:15:25;2.40;97.80
22161;DHT22;49035;48.812;11.762;2023-02-26T11:17:53;2.60;98.40
22161;DHT22;49035;48.812;11.762;2023-02-26T11:20:32;2.60;95.30
22161;DHT22;49035;48.812;11.762;2023-02-26T11:22:59;2.30;94.60
22161;DHT22;49035;48.812;11.762;2023-02-26T11:25:28;2.20;94.50
22161;DHT22;49035;48.812;11.762;2023-02-26T11:28:02;2.30;95.30
22161;DHT22;49035;48.812;11.762;2023-02-26T11:30:31;2.30;94.30
22161;DHT22;49035;48.812;11.762;2023-02-26T11:33:06;2.30;95.20
22161;DHT22;49035;48.812;11.762;2023-02-26T11:35:37;2.30;95.40
22161;DHT22;49035;48.812;11.762;2023-02-26T11:38:03;2.40;95.60
22161;DHT22;49035;48.812;11.762;2023-02-26T11:40:38;2.60;94.70
22161;DHT22;49035;48.812;11.762;2023-02-26T11:43:14;2.60;95.40
22161;DHT22;49035;48.812;11.762;2023-02-26T11:45:43;2.40;93.10
22161;DHT22;49035;48.812;11.762;2023-02-26T11:48:15;2.10;92.40
22161;DHT22;49035;48.812;11.762;2023-02-26T11:50:47;2.00;93.70
22161;DHT22;49035;48.812;11.762;2023-02-26T11:53:22;1.90;93.60
22161;DHT22;49035;48.812;11.762;2023-02-26T11:55:59;2.00;95.30
22161;DHT22;49035;48.812;11.762;2023-02-26T11:58:34;2.40;94.70
22161;DHT22;49035;48.812;11.762;2023-02-26T12:01:02;2.70;95.10
22161;DHT22;49035;48.812;11.762;2023-02-26T12:03:32;3.00;93.20
22161;DHT22;49035;48.812;11.762;2023-02-26T12:05:59;3.10;91.20
22161;DHT22;49035;48.812;11.762;2023-02-26T12:08:36;3.20;91.10
22161;DHT22;49035;48.812;11.762;2023-02-26T12:20:34;3.90;85.60
22161;DHT22;49035;48.812;11.762;2023-02-26T12:45:15;3.00;90.60
22161;DHT22;49035;48.812;11.762;2023-02-26T13:09:23;3.00;91.40
22161;DHT22;49035;48.812;11.762;2023-02-26T13:15:00;3.50;90.30
22161;DHT22;49035;48.812;11.762;2023-02-26T13:17:46;3.80;89.80
22161;DHT22;49035;48.812;11.762;2023-02-26T13:20:18;4.10;85.40
22161;DHT22;49035;48.812;11.762;2023-02-26T13:25:46;4.90;89.90
22161;DHT22;49035;48.812;11.762;2023-02-26T13:30:57;3.60;83.30
22161;DHT22;49035;48.812;11.762;2023-02-26T13:33:28;3.40;87.90
22161;DHT22;49035;48.812;11.762;2023-02-26T13:35:55;2.90;88.30
22161;DHT22;49035;48.812;11.762;2023-02-26T13:44:16;1.80;98.00
22161;DHT22;49035;48.812;11.762;2023-02-26T13:51:56;1.30;99.70
22161;DHT22;49035;48.812;11.762;2023-02-26T13:54:43;1.40;99.90
22161;DHT22;49035;48.812;11.762;2023-02-26T13:57:32;1.40;99.90
22161;DHT22;49035;48.812;11.762;2023-02-26T14:02:56;0.90;99.90
22161;DHT22;49035;48.812;11.762;2023-02-26T14:08:19;0.60;99.90
22161;DHT22;49035;48.812;11.762;2023-02-26T14:13:22;0.60;99.90
22161;DHT22;49035;48.812;11.762;2023-02-26T14:18:49;1.00;99.90
22161;DHT22;49035;48.812;11.762;2023-02-26T14:26:55;1.40;99.90
22161;DHT22;49035;48.812;11.762;2023-02-26T14:29:41;1.60;99.90
22161;DHT22;49035;48.812;11.762;2023-02-26T14:35:05;2.20;99.90
22161;DHT22;49035;48.812;11.762;2023-02-26T14:37:35;2.10;99.90
22161;DHT22;49035;48.812;11.762;2023-02-26T14:45:40;2.00;99.90
22161;DHT22;49035;48.812;11.762;2023-02-26T15:17:19;1.40;99.90
22161;DHT22;49035;48.812;11.762;2023-02-26T15:19:57;1.30;99.90
22161;DHT22;49035;48.812;11.762;2023-02-26T15:25:22;1.40;99.90
22161;DHT22;49035;48.812;11.762;2023-02-26T15:27:49;1.40;99.90
22161;DHT22;49035;48.812;11.762;2023-02-26T15:30:15;1.30;99.90
22161;DHT22;49035;48.812;11.762;2023-02-26T15:32:41;1.30;99.90
22161;DHT22;49035;48.812;11.762;2023-02-26T15:35:19;1.20;99.90
22161;DHT22;49035;48.812;11.762;2023-02-26T15:38:03;1.20;99.90
22161;DHT22;49035;48.812;11.762;2023-02-26T15:40:32;1.10;99.90
22161;DHT22;49035;48.812;11.762;2023-02-26T15:42:59;1.10;99.90
22161;DHT22;49035;48.812;11.762;2023-02-26T15:45:31;1.00;99.90
22161;DHT22;49035;48.812;11.762;2023-02-26T15:48:01;1.00;99.90
22161;DHT22;49035;48.812;11.762;2023-02-26T15:50:31;0.80;99.90
22161;DHT22;49035;48.812;11.762;2023-02-26T15:53:01;0.80;99.90
22161;DHT22;49035;48.812;11.762;2023-02-26T15:55:32;0.70;99.90
22161;DHT22;49035;48.812;11.762;2023-02-26T15:57:59;0.70;99.90
22161;DHT22;49035;48.812;11.762;2023-02-26T16:00:25;0.70;99.90
22161;DHT22;49035;48.812;11.762;2023-02-26T16:02:55;0.70;99.90
22161;DHT22;49035;48.812;11.762;2023-02-26T16:05:28;0.60;99.90
22161;DHT22;49035;48.812;11.762;2023-02-26T16:07:54;0.20;99.90
22161;DHT22;49035;48.812;11.762;2023-02-26T16:10:35;0.00;99.90
22161;DHT22;49035;48.812;11.762;2023-02-26T16:13:04;-0.10;99.90
22161;DHT22;49035;48.812;11.762;2023-02-26T16:15:36;-0.10;99.90
22161;DHT22;49035;48.812;11.762;2023-02-26T16:18:09;-0.20;99.90
22161;DHT22;49035;48.812;11.762;2023-02-26T16:20:40;-0.30;99.90
22161;DHT22;49035;48.812;11.762;2023-02-26T16:23:12;-0.30;99.90
22161;DHT22;49035;48.812;11.762;2023-02-26T16:25:47;-0.20;99.90
22161;DHT22;49035;48.812;11.762;2023-02-26T16:28:32;-0.30;99.90
22161;DHT22;49035;48.812;11.762;2023-02-26T16:31:00;-0.20;99.90
22161;DHT22;49035;48.812;11.762;2023-02-26T16:33:32;-0.20;99.90
22161;DHT22;49035;48.812;11.762;2023-02-26T16:36:13;-0.20;99.90
22161;DHT22;49035;48.812;11.762;2023-02-26T16:38:44;-0.30;99.90
22161;DHT22;49035;48.812;11.762;2023-02-26T16:41:10;-0.40;99.90
22161;DHT22;49035;48.812;11.762;2023-02-26T16:46:22;-0.50;99.90
22161;DHT22;49035;48.812;11.762;2023-02-26T16:48:57;-0.60;99.90
22161;DHT22;49035;48.812;11.762;2023-02-26T16:51:26;-0.70;99.90
22161;DHT22;49035;48.812;11.762;2023-02-26T16:53:57;-0.70;99.90
22161;DHT22;49035;48.812;11.762;2023-02-26T16:56:27;-0.70;99.90
22161;DHT22;49035;48.812;11.762;2023-02-26T16:59:17;-0.90;99.90
22161;DHT22;49035;48.812;11.762;2023-02-26T17:01:59;-0.90;99.90
22161;DHT22;49035;48.812;11.762;2023-02-26T17:04:29;-0.80;99.90
22161;DHT22;49035;48.812;11.762;2023-02-26T17:06:56;-0.70;99.90
22161;DHT22;49035;48.812;11.762;2023-02-26T17:09:49;-0.60;99.90
22161;DHT22;49035;48.812;11.762;2023-02-26T17:12:27;-0.70;99.90
22161;DHT22;49035;48.812;11.762;2023-02-26T17:14:58;-0.70;99.90
22161;DHT22;49035;48.812;11.762;2023-02-26T17:17:25;-0.90;99.90
22161;DHT22;49035;48.812;11.762;2023-02-26T17:19:50;-0.80;99.90
22161;DHT22;49035;48.812;11.762;2023-02-26T17:22:22;-0.80;99.90
22161;DHT22;49035;48.812;11.762;2023-02-26T17:24:48;-0.90;99.90
22161;DHT22;49035;48.812;11.762;2023-02-26T17:27:39;-0.90;99.90
22161;DHT22;49035;48.812;11.762;2023-02-26T17:30:06;-0.80;99.90
22161;DHT22;49035;48.812;11.762;2023-02-26T17:32:33;-0.70;99.90
22161;DHT22;49035;48.812;11.762;2023-02-26T17:35:00;-0.60;99.90
22161;DHT22;49035;48.812;11.762;2023-02-26T17:37:31;-0.60;99.90
22161;DHT22;49035;48.812;11.762;2023-02-26T17:39:58;-0.60;99.90
22161;DHT22;49035;48.812;11.762;2023-02-26T17:42:24;-0.50;99.90
22161;DHT22;49035;48.812;11.762;2023-02-26T17:44:50;-0.50;99.90
22161;DHT22;49035;48.812;11.762;2023-02-26T17:47:21;-0.50;99.90
22161;DHT22;49035;48.812;11.762;2023-02-26T17:49:48;-0.40;99.90
22161;DHT22;49035;48.812;11.762;2023-02-26T17:52:14;-0.50;99.90
22161;DHT22;49035;48.812;11.762;2023-02-26T17:54:39;-0.50;99.90
22161;DHT22;49035;48.812;11.762;2023-02-26T17:57:05;-0.50;99.90
22161;DHT22;49035;48.812;11.762;2023-02-26T17:59:31;-0.50;99.90
22161;DHT22;49035;48.812;11.762;2023-02-26T18:01:57;-0.50;99.90
22161;DHT22;49035;48.812;11.762;2023-02-26T18:04:23;-0.50;99.90
22161;DHT22;49035;48.812;11.762;2023-02-26T18:06:49;-0.60;99.90
22161;DHT22;49035;48.812;11.762;2023-02-26T18:09:15;-0.60;99.90
22161;DHT22;49035;48.812;11.762;2023-02-26T18:11:41;-0.60;99.90
22161;DHT22;49035;48.812;11.762;2023-02-26T18:14:08;-0.60;99.90
22161;DHT22;49035;48.812;11.762;2023-02-26T18:16:37;-0.60;99.90
22161;DHT22;49035;48.812;11.762;2023-02-26T18:19:03;-0.60;99.90
22161;DHT22;49035;48.812;11.762;2023-02-26T18:21:30;-0.60;99.90
22161;DHT22;49035;48.812;11.762;2023-02-26T18:23:56;-0.60;99.90
22161;DHT22;49035;48.812;11.762;2023-02-26T18:26:25;-0.60;99.90
22161;DHT22;49035;48.812;11.762;2023-02-26T18:28:53;-0.50;99.90
22161;DHT22;49035;48.812;11.762;2023-02-26T18:31:20;-0.50;99.90
22161;DHT22;49035;48.812;11.762;2023-02-26T18:33:46;-0.40;99.90
22161;DHT22;49035;48.812;11.762;2023-02-26T18:36:22;-0.40;99.90
22161;DHT22;49035;48.812;11.762;2023-02-26T18:38:49;-0.40;99.90